Home > Products > Valid Products > TAF

000
FTUS43 KMKX 162046 AAA
TAFMKE
TAF AMD
KMKE 162046Z 1621/1724 15018G27KT P6SM SCT100 BKN200
     FM170000 13015G22KT P6SM BKN120
     FM171000 15014G21KT P6SM VCSH BKN050
     FM171300 18014G21KT P6SM BKN060
     FM171700 21012G19KT P6SM BKN040=



000
FTUS43 KMKX 162046 AAA
TAFMSN
TAF AMD
KMSN 162046Z 1621/1718 16022G32KT P6SM SCT100 BKN200
     FM170000 14015G22KT P6SM BKN100
     FM170800 15012G19KT P6SM VCSH BKN050
     FM171100 18008G15KT P6SM BKN060
     FM171500 24008G15KT P6SM BKN040=



000
FTUS43 KMKX 161736
TAFMSN
TAF
KMSN 161736Z 1618/1718 16020G32KT P6SM BKN100
     FM170000 14015G22KT P6SM BKN100
     FM170800 15012G19KT P6SM VCSH BKN050
     FM171100 18008G15KT P6SM BKN060
     FM171500 24008G15KT P6SM BKN040=



000
FTUS43 KMKX 161736
TAFMKE
TAF
KMKE 161736Z 1618/1724 15016G24KT P6SM BKN100
     FM170000 13015G22KT P6SM BKN120
     FM171000 15014G21KT P6SM VCSH BKN050
     FM171300 18014G21KT P6SM BKN060
     FM171700 21012G19KT P6SM BKN040=



000
FTUS43 KMKX 161509 AAA
TAFMKE
TAF AMD
KMKE 161509Z 1615/1718 16016G23KT P6SM BKN100
     FM170000 15014G22KT P6SM BKN100
     FM170600 14014G20KT P6SM BKN080=



000
FTUS43 KMKX 161509 AAA
TAFMSN
TAF AMD
KMSN 161509Z 1615/1712 16016G24KT P6SM BKN100
     FM161800 16020G32KT P6SM BKN100
     FM170000 14016G23KT P6SM BKN080
     FM170600 14014G20KT P6SM BKN080=



000
FTUS43 KMKX 161124
TAFMSN
TAF
KMSN 161124Z 1612/1712 14005KT P6SM BKN100
     FM161400 16016G24KT P6SM BKN100
     FM161800 16020G32KT P6SM BKN100
     FM170000 14016G23KT P6SM BKN080
     FM170600 14014G20KT P6SM BKN080=



000
FTUS43 KMKX 161124
TAFMKE
TAF
KMKE 161124Z 1612/1718 17005KT P6SM BKN100
     FM161500 16016G23KT P6SM BKN100
     FM170000 15014G22KT P6SM BKN100
     FM170600 14014G20KT P6SM BKN080=



000
FTUS43 KMKX 160735 AAA
TAFMKE
TAF AMD
KMKE 160735Z 1608/1712 00000KT P6SM SCT100
     FM161100 15007KT P6SM BKN100
     FM161600 16016G23KT P6SM BKN150
     FM170000 15014G22KT P6SM BKN120
     FM170600 16014G20KT P6SM BKN060=



000
FTUS43 KMKX 160732 AAA
TAFMSN
TAF AMD
KMSN 160732Z 1608/1706 11006KT P6SM OVC090
     FM161100 13008KT P6SM OVC080
     FM161400 16016G24KT P6SM BKN100
     FM161800 16020G32KT P6SM BKN150
     FM170000 14016G23KT P6SM BKN070=



000
FTUS43 KMKX 160520
TAFMSN
TAF
KMSN 160520Z 1606/1706 00000KT P6SM BKN100
     FM161100 13008KT P6SM OVC080
     FM161400 16016G24KT P6SM BKN100
     FM161800 16020G32KT P6SM BKN150
     FM170000 14016G23KT P6SM BKN070=



000
FTUS43 KMKX 160520
TAFMKE
TAF
KMKE 160520Z 1606/1712 00000KT P6SM FEW110
     FM160800 15007KT P6SM BKN100
     FM161600 16016G23KT P6SM BKN150
     FM170000 15014G22KT P6SM BKN120
     FM170600 16014G20KT P6SM BKN060=



000
FTUS43 KMKX 160259 AAA
TAFMKE
TAF AMD
KMKE 160259Z 1603/1706 15004KT P6SM FEW060
     FM160800 15007KT P6SM BKN100
     FM161500 16015G23KT P6SM SCT120 BKN200
     FM161900 17021G34KT P6SM SCT150 BKN250
     FM170100 16015G25KT P6SM SCT050 BKN080=



000
FTUS43 KMKX 152342
TAFMKE
TAF
KMKE 152342Z 1600/1706 14009KT P6SM BKN060
     FM160200 VRB03KT P6SM FEW060
     FM160800 15007KT P6SM BKN100
     FM161500 16015G23KT P6SM SCT120 BKN200
     FM161900 17021G34KT P6SM SCT150 BKN250
     FM170100 16015G25KT P6SM SCT050 BKN080=



000
FTUS43 KMKX 152342
TAFMSN
TAF
KMSN 152342Z 1600/1624 29005KT P6SM SCT050
     FM160200 VRB03KT P6SM SCT100
     FM160600 13006KT P6SM BKN080
     FM161400 16016G26KT P6SM BKN120
     FM161800 17020G35KT P6SM BKN120=



000
FTUS43 KMKX 152052 AAA
TAFMKE
TAF AMD
KMKE 152052Z 1521/1624 VRB06KT P6SM BKN050
     FM152300 VRB06KT P6SM SCT050
     FM160200 VRB03KT P6SM SKC
     FM160800 15007KT P6SM SCT090 SCT250
     FM161400 16015G23KT P6SM SCT120 BKN200
     FM161800 17021G34KT P6SM SCT150 BKN250=



000
FTUS43 KMKX 152052 AAA
TAFMSN
TAF AMD
KMSN 152052Z 1521/1618 29008KT P6SM BKN050
     FM152300 VRB03KT P6SM FEW050
     FM160200 VRB03KT P6SM SKC
     FM160700 13006KT P6SM BKN080
     FM161400 16018G28KT P6SM BKN120
     FM161700 17021G35KT P6SM BKN120=



000
FTUS43 KMKX 151739
TAFMKE
TAF
KMKE 151739Z 1518/1624 32009KT P6SM BKN050
     FM152200 VRB06KT P6SM SCT050
     FM160200 VRB03KT P6SM SKC
     FM160800 15007KT P6SM SCT090 SCT250
     FM161400 16015G23KT P6SM SCT120 BKN200
     FM161800 17021G34KT P6SM SCT150 BKN250=



000
FTUS43 KMKX 151739
TAFMSN
TAF
KMSN 151739Z 1518/1618 29008KT P6SM BKN050
     FM152300 VRB03KT P6SM FEW050
     FM160200 VRB03KT P6SM SKC
     FM160700 13006KT P6SM BKN080
     FM161400 16018G28KT P6SM BKN120
     FM161700 17021G35KT P6SM BKN120=



000
FTUS43 KMKX 151450 AAA
TAFMSN
TAF AMD
KMSN 151450Z 1515/1612 31007KT P6SM SCT050
     FM151800 29007KT P6SM BKN050
     FM152200 VRB05KT P6SM SCT060
     FM160400 VRB03KT P6SM BKN100=



000
FTUS43 KMKX 151450 AAA
TAFMKE
TAF AMD
KMKE 151450Z 1515/1618 32008KT P6SM SCT050
     FM152000 VRB06KT P6SM BKN050
     FM160400 VRB04KT P6SM SCT100
     FM160800 15007KT P6SM BKN100
     FM161500 16012G21KT P6SM BKN120=



000
FTUS43 KMKX 151124
TAFMSN
TAF
KMSN 151124Z 1512/1612 29005KT P6SM FEW050
     FM151500 31007KT P6SM SCT050
     FM151800 30009KT P6SM BKN060
     FM152200 VRB05KT P6SM FEW060
     FM160400 VRB03KT P6SM BKN100=



000
FTUS43 KMKX 151124
TAFMKE
TAF
KMKE 151124Z 1512/1618 34007KT P6SM FEW030
     FM151500 30008KT P6SM SCT050
     FM152000 04006KT P6SM BKN060
     FM160400 VRB04KT P6SM SCT100
     FM160800 15007KT P6SM BKN100
     FM161500 16012G21KT P6SM BKN120=



000
FTUS43 KMKX 150855 AAC
TAFMKE
TAF AMD
KMKE 150855Z 1509/1612 34010KT P6SM FEW020
     FM151500 30008KT P6SM BKN060
     FM152000 04006KT P6SM BKN070
     FM160400 15004KT P6SM SCT250
     FM160600 15007KT P6SM BKN100=



000
FTUS43 KMKX 150854 AAC
TAFMSN
TAF AMD
KMSN 150854Z 1509/1606 29005KT P6SM SKC
     FM151400 31007KT P6SM SCT050
      TEMPO 1516/1519 BKN050
     FM152200 VRB05KT P6SM FEW060
     FM160400 VRB03KT P6SM BKN100=



000
FTUS43 KMKX 150657 AAB
TAFMKE
TAF AMD
KMKE 150657Z 1507/1612 34010KT P6SM FEW020
     FM151500 30008KT P6SM BKN060
     FM152000 04006KT P6SM SCT070
     FM160400 15004KT P6SM SCT250
     FM160600 15007KT P6SM BKN100=



000
FTUS43 KMKX 150656 AAB
TAFMSN
TAF AMD
KMSN 150656Z 1507/1606 34005KT P6SM FEW035
     FM151500 31007KT P6SM SCT050
      TEMPO 1516/1519 BKN050
     FM152200 VRB05KT P6SM FEW060
     FM160400 VRB03KT P6SM BKN100=



000
FTUS43 KMKX 150624 AAA
TAFMKE
TAF AMD
KMKE 150624Z 1506/1612 34011KT P6SM BKN025
     FM150900 33009KT P6SM SCT025
     FM151500 30008KT P6SM BKN060
     FM152000 04006KT P6SM SCT070
     FM160400 15004KT P6SM SCT250
     FM160600 15007KT P6SM BKN100=



000
FTUS43 KMKX 150622 AAA
TAFMSN
TAF AMD
KMSN 150622Z 1506/1606 35009G15KT P6SM BKN035
      TEMPO 1506/1507 5SM -SHSN
     FM150700 34008KT P6SM SCT035
     FM151500 31007KT P6SM SCT050
      TEMPO 1516/1519 BKN050
     FM152200 VRB05KT P6SM FEW060
     FM160400 VRB03KT P6SM BKN100=



000
FTUS43 KMKX 150520
TAFMSN
TAF
KMSN 150520Z 1506/1606 36005KT P6SM SCT025 BKN045
      TEMPO 1506/1507 3SM -SHSN BKN025
     FM150700 33004KT P6SM SCT080
     FM151500 31007KT P6SM SCT050
      TEMPO 1516/1519 BKN050
     FM152200 VRB05KT P6SM FEW060
     FM160400 VRB03KT P6SM BKN100=



000
FTUS43 KMKX 150520
TAFMKE
TAF
KMKE 150520Z 1506/1612 33008KT P6SM FEW040 SCT080
      TEMPO 1506/1507 SCT030 BKN040
     FM151500 30008KT P6SM BKN060
     FM152000 04006KT P6SM SCT070
     FM160100 VRB03KT P6SM FEW250
     FM160400 15004KT P6SM SCT250
     FM160600 15007KT P6SM BKN100=



000
FTUS43 KMKX 150438 AAD
TAFMKE
TAF AMD
KMKE 150438Z 1505/1606 34009KT P6SM SCT035 BKN050
     FM150600 32008KT P6SM FEW035 SCT080
     FM151500 30008KT P6SM BKN060
     FM152000 04006KT P6SM SCT070
     FM160100 VRB03KT P6SM FEW250
     FM160400 15005KT P6SM SCT250=



000
FTUS43 KMKX 150435 AAC
TAFMSN
TAF AMD
KMSN 150435Z 1505/1524 35007KT 1SM -SHSN BKN013
     FM150500 35007KT 3SM -SHSN SCT014 OVC025
      TEMPO 1505/1506 1SM -SHSN BKN014
     FM150700 33004KT P6SM SCT080
     FM151500 31007KT P6SM SCT050=



000
FTUS43 KMKX 150405 AAB
TAFMSN
TAF AMD
KMSN 150405Z 1504/1524 35005KT P6SM SCT035 BKN050
      TEMPO 1504/1506 3SM -SHSN BKN035
     FM150600 34005KT P6SM FEW035 SCT050 BKN080
     FM150700 33004KT P6SM SCT080
     FM151500 31007KT P6SM SCT050=



000
FTUS43 KMKX 150304 AAC
TAFMKE
TAF AMD
KMKE 150304Z 1503/1606 32008KT 4SM -SN SCT025 OVC035
      TEMPO 1503/1504 2SM -SN OVC025
     FM150500 33008KT P6SM FEW035 SCT050 BKN080
     FM150800 32008KT P6SM SCT080
     FM151500 30008KT P6SM BKN060
     FM152000 04006KT P6SM SCT070
     FM160100 VRB03KT P6SM FEW250
     FM160400 15005KT P6SM SCT250=



000
FTUS43 KMKX 150213 AAB
TAFMKE
TAF AMD
KMKE 150213Z 1502/1606 32008KT 3SM -SN SCT025 OVC030
      TEMPO 1502/1503 2SM -SN OVC030
     FM150400 33008KT P6SM FEW035 SCT050 BKN080
     FM150800 32008KT P6SM SCT080
     FM151500 30008KT P6SM BKN060
     FM152000 04006KT P6SM SCT070
     FM160100 VRB03KT P6SM FEW250
     FM160400 15005KT P6SM SCT250=



000
FTUS43 KMKX 150036 AAA
TAFMKE
TAF AMD
KMKE 150036Z 1501/1606 34012KT 3SM -SN OVC025
      TEMPO 1501/1502 2SM -SN
     FM150200 34012KT P6SM SCT025 BKN040
      TEMPO 1502/1503 -SN
     FM150400 33009KT P6SM FEW035 SCT050 BKN080
     FM150800 32008KT P6SM SCT080
     FM151500 30008KT P6SM BKN060
     FM152000 04006KT P6SM SCT070
     FM160100 VRB03KT P6SM FEW250
     FM160400 15005KT P6SM SCT250=



000
FTUS43 KMKX 150035 AAA
TAFMSN
TAF AMD
KMSN 150035Z 1501/1524 34008KT P6SM SCT035 BKN050
      TEMPO 1501/1503 -SHSN BKN035
     FM150300 34008KT P6SM FEW035 SCT050 BKN080
     FM150700 33004KT P6SM SCT080
     FM151500 31007KT P6SM SCT050=



000
FTUS43 KMKX 142330
TAFMSN
TAF
KMSN 142330Z 1500/1524 34008KT P6SM SCT035 BKN050
     FM150300 34008KT P6SM FEW035 SCT050 BKN080
     FM150700 33004KT P6SM SCT080
     FM151500 31007KT P6SM SCT050=



000
FTUS43 KMKX 142330
TAFMKE
TAF
KMKE 142330Z 1500/1606 34012KT 4SM -SN OVC025
     FM150100 34011KT P6SM SCT027 OVC035
     FM150400 33009KT P6SM FEW035 SCT050 BKN080
     FM150800 32008KT P6SM SCT080
     FM151500 30008KT P6SM BKN060
     FM152000 04006KT P6SM SCT070
     FM160100 VRB03KT P6SM FEW250
     FM160400 15005KT P6SM SCT250=



000
FTUS43 KMKX 142203 AAD
TAFMSN
TAF AMD
KMSN 142203Z 1422/1518 35011KT P6SM SCT025 OVC035
      TEMPO 1422/1424 BKN025
     FM150000 34010KT P6SM BKN035 OVC100
     FM150300 34008KT P6SM SCT030 OVC100
     FM150800 34008KT P6SM SCT080=



000
FTUS43 KMKX 142149 AAF
TAFMKE
TAF AMD
KMKE 142149Z 1422/1524 34012KT 2SM -SN SCT017 BKN020 OVC030
      TEMPO 1422/1423 1 1/2SM -SN BKN017
     FM142300 34012KT 4SM -SN OVC025
      TEMPO 1423/1424 2SM -SN
     FM150000 34011KT P6SM BKN030 OVC080
     FM150400 34011KT P6SM SCT030 OVC080
     FM151000 33010KT P6SM SCT080
     FM151800 30010KT P6SM SCT040=



000
FTUS43 KMKX 142020 AAC
TAFMSN
TAF AMD
KMSN 142020Z 1420/1518 35013G19KT P6SM SCT025 OVC035
     FM150000 34011KT P6SM BKN035 OVC100
     FM150300 34008KT P6SM SCT030 OVC100
     FM150800 34008KT P6SM SCT080=



000
FTUS43 KMKX 142018 AAE
TAFMKE
TAF AMD
KMKE 142018Z 1420/1524 33012G20KT 1SM -SN BKN017 BKN029 OVC035
      TEMPO 1420/1422 2SM -SN
     FM142200 33012G22KT 5SM -SN OVC020
     FM150100 34011G19KT P6SM BKN030 OVC080
     FM150400 34011KT P6SM SCT030 OVC080
     FM151000 33010KT P6SM SCT080
     FM151800 30010KT P6SM SCT040=



000
FTUS43 KMKX 141933 AAB
TAFMSN
TAF AMD
KMSN 141933Z 1420/1518 35014G18KT P6SM BKN020 BKN028 OVC100
     FM150000 34011KT P6SM BKN030 OVC100
     FM150300 34008KT P6SM SCT030 OVC100
     FM150800 34008KT P6SM SCT080=



000
FTUS43 KMKX 141914 AAD
TAFMKE
TAF AMD
KMKE 141914Z 1419/1524 31014KT 2SM -SN FEW018 BKN025 OVC030
      TEMPO 1419/1421 4SM -SN
     FM142100 33015G25KT 5SM -SN OVC020
     FM150100 34013G19KT P6SM BKN030 OVC080
     FM150400 34012KT P6SM SCT030 OVC080
     FM151000 33011KT P6SM SCT080
     FM151800 30010KT P6SM SCT040=



000
FTUS43 KMKX 141857 AAC
TAFMKE
TAF AMD
KMKE 141857Z 1419/1524 34014KT 2SM -SN FEW020 SCT024 OVC030
      TEMPO 1419/1421 4SM -SN
     FM142100 33015G25KT 5SM -SN OVC020
     FM150100 34013G19KT P6SM BKN030 OVC080
     FM150400 34012KT P6SM SCT030 OVC080
     FM151000 33011KT P6SM SCT080
     FM151800 30010KT P6SM SCT040=



000
FTUS43 KMKX 141856 AAA
TAFMSN
TAF AMD
KMSN 141856Z 1419/1518 34012G21KT P6SM -SN OVC019
     FM150000 34011KT P6SM BKN030 OVC100
     FM150300 34008KT P6SM SCT030 OVC100
     FM150800 34008KT P6SM SCT080=



000
FTUS43 KMKX 141837 AAB
TAFMKE
TAF AMD
KMKE 141837Z 1419/1524 34012G19KT P6SM -SN OVC023
      TEMPO 1419/1421 4SM -SN
     FM142100 33015G25KT P6SM -SN OVC020
     FM150100 34013G19KT P6SM BKN030 OVC080
     FM150400 34012KT P6SM SCT030 OVC080
     FM151000 33011KT P6SM SCT080
     FM151800 30010KT P6SM SCT040=



000
FTUS43 KMKX 141753 AAA
TAFMKE
TAF AMD
KMKE 141753Z 1418/1524 32013G22KT P6SM BKN020 OVC025
     FM142000 33015G25KT P6SM -SHRASN OVC020
     FM150100 34013G19KT P6SM BKN030 OVC080
     FM150400 34012KT P6SM SCT030 OVC080
     FM151000 33011KT P6SM SCT080
     FM151800 30010KT P6SM SCT040=



000
FTUS43 KMKX 141724
TAFMKE
TAF
KMKE 141724Z 1418/1524 34015G25KT P6SM OVC020
     FM142000 34015G25KT P6SM -SHRASN OVC020
     FM150100 34013G19KT P6SM BKN030 OVC080
     FM150400 34012KT P6SM SCT030 OVC080
     FM151000 33011KT P6SM SCT080
     FM151800 30010KT P6SM SCT040=



000
FTUS43 KMKX 141724
TAFMSN
TAF
KMSN 141724Z 1418/1518 34012G22KT P6SM OVC020
     FM150000 34011KT P6SM BKN030 OVC100
     FM150300 34008KT P6SM SCT030 OVC100
     FM150800 34008KT P6SM SCT080=



000
FTUS43 KMKX 141443 AAA
TAFMKE
TAF AMD
KMKE 141443Z 1415/1518 33015G23KT P6SM BKN014 OVC019
     FM141700 34016G26KT P6SM BKN020 OVC045
     FM150100 34013G19KT P6SM BKN030 OVC080
     FM150400 34012KT P6SM SCT030 OVC080
     FM151000 33011KT P6SM SCT080=



000
FTUS43 KMKX 141122
TAFMSN
TAF
KMSN 141122Z 1412/1512 34015G24KT 5SM -SN BR SCT006 OVC014
     FM141300 34017G25KT P6SM BKN014 OVC020
     FM141600 34014G25KT P6SM BKN020 OVC045
     FM150000 34011KT P6SM BKN030 OVC100
     FM150300 34008KT P6SM SCT030 OVC100
     FM150800 34008KT P6SM SCT080=



000
FTUS43 KMKX 141122
TAFMKE
TAF
KMKE 141122Z 1412/1518 33017G28KT 6SM -RA BR SCT006 OVC011
     FM141400 34020G30KT P6SM BKN014 OVC020
     FM141700 34016G26KT P6SM BKN020 OVC045
     FM150100 34013G19KT P6SM BKN030 OVC080
     FM150400 34012KT P6SM SCT030 OVC080
     FM151000 33011KT P6SM SCT080=



000
FTUS43 KMKX 141010 AAB
TAFMKE
TAF AMD
KMKE 141010Z 1410/1512 35016G26KT 3SM -RA BR SCT007 OVC015
     FM141100 34018G28KT 6SM -RASN BR SCT007 OVC012
     FM141300 34020G30KT P6SM OVC012
     FM141800 34017G26KT P6SM OVC015=



000
FTUS43 KMKX 141007 AAC
TAFMSN
TAF AMD
KMSN 141007Z 1410/1506 34017G26KT 2SM -SN BR BKN009
     FM141100 34016G26KT 5SM -SN BR OVC012
     FM141200 33015G25KT 6SM -SN BR SCT009 OVC015
     FM141400 33014G24KT P6SM OVC015=



000
FTUS43 KMKX 140900 AAB
TAFMSN
TAF AMD
KMSN 140900Z 1409/1506 34013G23KT 2SM -SN BR OVC005
     FM141000 33013G23KT 5SM -SN BR OVC009
     FM141100 33013G23KT 6SM -SN BR SCT009 OVC015
     FM141400 33014G24KT P6SM OVC015=



000
FTUS43 KMKX 140857 AAA
TAFMSN
TAF AMD
KMSN 140857Z 1409/1506 34013G23KT 1 1/2SM -SN BR OVC005
     FM141000 33013G23KT 5SM -SN BR OVC009
     FM141100 33013G23KT 6SM -SN BR SCT009 OVC015
     FM141400 33014G24KT P6SM OVC015=



000
FTUS43 KMKX 140703 AAA
TAFMKE
TAF AMD
KMKE 140703Z 1407/1512 02021G32KT 6SM -RA BR OVC004
      TEMPO 1408/1412 3SM RA BR OVC005
     FM141200 34020G30KT 4SM -RASN BR OVC007
     FM141400 34020G30KT 5SM -SN BR OVC007
     FM141700 34017G27KT P6SM OVC015=



000
FTUS43 KMKX 140524
TAFMSN
TAF
KMSN 140524Z 1406/1506 02018G30KT 5SM -RA BR OVC011
      TEMPO 1406/1409 3SM RA BR OVC007
     FM140900 36018G28KT 3SM -RASN BR OVC005
     FM141100 34018G28KT 3SM -SN BR OVC004
     FM141400 35017G27KT P6SM -SN OVC010
     FM141800 34017G27KT P6SM OVC015=



000
FTUS43 KMKX 140524
TAFMKE
TAF
KMKE 140524Z 1406/1512 36019G29KT 5SM -RA BR OVC004
      TEMPO 1406/1409 2SM RA BR OVC005
     FM141100 34020G30KT 3SM -RASN BR OVC007
     FM141300 34020G30KT 4SM -RASN BR OVC007
     FM141700 34017G27KT P6SM OVC015=



000
FTUS43 KMKX 140450 AAC
TAFMKE
TAF AMD
KMKE 140450Z 1405/1506 36010G15KT 6SM -RA BR OVC002
      TEMPO 1405/1409 3SM -RA BR OVC005
     FM141100 34020G30KT 3SM -RASN BR OVC007
     FM141300 34020G30KT 4SM -RASN BR OVC007
     FM141700 34017G27KT P6SM OVC015=



000
FTUS43 KMKX 140448 AAC
TAFMSN
TAF AMD
KMSN 140448Z 1405/1424 02020G33KT 6SM -RA BR OVC011
      TEMPO 1405/1409 3SM -RA BR OVC007
     FM140900 36018G28KT 3SM -RASN BR OVC005
     FM141100 34018G28KT 3SM -SN BR OVC004
     FM141400 35017G27KT P6SM -SN OVC010
     FM141800 34017G27KT P6SM OVC015=



000
FTUS43 KMKX 140310 AAB
TAFMKE
TAF AMD
KMKE 140310Z 1403/1506 03010G15KT 3SM -RA BR OVC002
      TEMPO 1403/1405 2SM -RA BR OVC005
     FM140500 01020G30KT 3SM -RA BR OVC005
     FM141100 34020G30KT 3SM -RASN BR OVC005
     FM141300 34020G30KT 4SM -SHSN OVC008
     FM141700 34017G27KT P6SM VCSH OVC015=



000
FTUS43 KMKX 140308 AAB
TAFMSN
TAF AMD
KMSN 140308Z 1403/1424 02016G22KT 3SM RA BR OVC008
     FM140500 36016G25KT 3SM -RA BR OVC006
     FM140800 36016G26KT 3SM -RASN BR OVC005
     FM141000 34015G25KT 3SM -SN BR OVC004
     FM141400 35017G27KT P6SM -SN OVC010
     FM141800 34017G27KT P6SM OVC015=



000
FTUS43 KMKX 140127 AAA
TAFMKE
TAF AMD
KMKE 140127Z 1401/1506 02013G18KT 4SM -RA BR VCTS OVC003CB
      TEMPO 1401/1405 3SM -RA BR OVC005
     FM140500 01020G30KT 3SM -RA BR OVC005
     FM141100 34020G30KT 3SM -RASN BR OVC005
     FM141300 34020G30KT 4SM -SHSN OVC008
     FM141700 34017G27KT P6SM VCSH OVC015=



000
FTUS43 KMKX 140124 AAA
TAFMSN
TAF AMD
KMSN 140124Z 1401/1424 02011KT 4SM RA BR VCTS OVC007CB
      TEMPO 1401/1403 2SM RA BR OVC005
     FM140300 02016G26KT 3SM -RA BR OVC005
     FM140800 36016G26KT 3SM -RASN BR OVC005
     FM141000 34015G25KT 3SM -SN BR OVC004
     FM141400 35017G27KT P6SM -SN OVC010
     FM141800 34017G27KT P6SM OVC015=



000
FTUS43 KMKX 132334
TAFMSN
TAF
KMSN 132334Z 1400/1424 06012G20KT 2SM RA BR VCTS OVC006CB
     FM140200 02016G26KT 3SM -RA BR OVC005
     FM140800 36016G26KT 3SM -RASN BR OVC005
     FM141000 34015G25KT 3SM -SN BR OVC004
     FM141400 35017G27KT P6SM -SN OVC010
     FM141800 34017G27KT P6SM OVC015=



000
FTUS43 KMKX 132334
TAFMKE
TAF
KMKE 132334Z 1400/1506 02010G15KT 3SM -RA BR OVC003
     FM140100 02012G18KT 2SM RA BR VCTS OVC004CB
     FM140500 01020G30KT 3SM -RA BR OVC004
     FM141100 34020G30KT 3SM -RASN BR OVC005
     FM141300 34020G30KT 4SM -SHSN OVC008
     FM141700 34017G27KT P6SM VCSH OVC015=



000
FTUS43 KMKX 132236 AAC
TAFMSN
TAF AMD
KMSN 132236Z 1323/1418 05010KT 4SM -RA BR OVC006
     FM140000 03012G18KT 3SM RA BR VCTS OVC004CB
     FM140300 02016G26KT 4SM -RA BR OVC005
     FM140800 36016G26KT 5SM -RASN BR OVC005
     FM141000 34015G25KT 5SM -SN BR OVC004
     FM141400 35017G27KT P6SM -SN OVC010=



000
FTUS43 KMKX 132233 AAD
TAFMKE
TAF AMD
KMKE 132233Z 1323/1424 01006KT 4SM -RA BR OVC002
     FM140100 02014KT 1SM RA BR OVC004
     FM140500 01020G30KT 4SM -RA BR OVC004
     FM141100 34020G30KT 5SM -RASN BR OVC005
     FM141300 34020G30KT 6SM -SHSN OVC008
     FM141700 34017G27KT P6SM VCSH OVC015=



    US Dept of Commerce
    National Oceanic and Atmospheric Administration
    National Weather Service
    1325 East West Highway
    Silver Spring, MD 20910
    Page Author: NWS Internet Services Team
Disclaimer
Information Quality
Credits
Glossary
Privacy Policy
Freedom of Information Act (FOIA)
About Us
Career Opportunities